createdAt,value
2019-03-16T00:01:59.727Z,56.20
2019-03-16T00:04:47.824Z,56.20
2019-03-16T00:07:36.012Z,56.30
2019-03-16T00:10:24.090Z,56.30
2019-03-16T00:13:15.926Z,56.30
2019-03-16T00:16:02.772Z,56.40
2019-03-16T00:18:50.868Z,56.40
2019-03-16T00:21:39.312Z,56.50
2019-03-16T00:24:27.786Z,56.50
2019-03-16T00:27:16.026Z,56.60
2019-03-16T00:30:07.022Z,56.60
2019-03-16T00:32:54.897Z,56.60
2019-03-16T00:35:43.039Z,56.60
2019-03-16T00:38:31.290Z,56.70
2019-03-16T00:41:19.427Z,56.70
2019-03-16T00:44:07.664Z,56.70
2019-03-16T00:46:56.186Z,56.80
2019-03-16T00:49:44.700Z,56.80
2019-03-16T00:52:32.756Z,56.60
2019-03-16T00:55:21.140Z,56.90
2019-03-16T00:58:09.503Z,56.80
2019-03-16T01:00:57.775Z,56.80
2019-03-16T01:03:46.159Z,56.90
2019-03-16T01:06:34.411Z,56.90
2019-03-16T01:09:22.846Z,56.90
2019-03-16T01:12:11.110Z,57.10
2019-03-16T01:14:59.501Z,57.20
2019-03-16T01:17:48.063Z,57.20
2019-03-16T01:20:36.673Z,57.10
2019-03-16T01:23:25.009Z,57.30
2019-03-16T01:26:13.383Z,57.10
2019-03-16T01:29:01.702Z,57.00
2019-03-16T01:31:50.257Z,57.00
2019-03-16T01:34:38.632Z,56.90
2019-03-16T01:37:27.029Z,56.80
2019-03-16T01:40:15.455Z,56.80
2019-03-16T01:43:04.000Z,56.90
2019-03-16T01:45:52.659Z,56.80
2019-03-16T01:48:40.905Z,56.90
2019-03-16T01:51:29.297Z,56.80
2019-03-16T01:54:17.569Z,56.80
2019-03-16T01:57:05.870Z,56.80
2019-03-16T01:59:54.190Z,56.70
2019-03-16T02:02:54.542Z,56.60
2019-03-16T02:05:33.392Z,56.60
2019-03-16T02:08:21.645Z,56.60
2019-03-16T02:11:09.666Z,56.70
2019-03-16T02:13:58.193Z,56.80
2019-03-16T02:16:46.619Z,56.80
2019-03-16T02:19:36.134Z,56.80
2019-03-16T02:22:24.647Z,56.80
2019-03-16T02:25:14.108Z,56.70
2019-03-16T02:28:03.670Z,56.70
2019-03-16T02:30:51.795Z,56.70
2019-03-16T02:33:39.821Z,56.70
2019-03-16T02:36:27.886Z,56.70
2019-03-16T02:39:16.162Z,56.60
2019-03-16T02:42:06.016Z,56.50
2019-03-16T02:44:54.182Z,56.50
2019-03-16T02:47:42.384Z,56.50
2019-03-16T02:50:30.781Z,56.40
2019-03-16T02:53:19.133Z,56.50
2019-03-16T02:56:07.132Z,56.40
2019-03-16T02:58:55.310Z,56.40
2019-03-16T03:01:43.861Z,56.40
2019-03-16T03:04:32.409Z,56.40
2019-03-16T03:07:20.976Z,56.40
2019-03-16T03:10:11.535Z,56.50
2019-03-16T03:12:59.538Z,56.50
2019-03-16T03:15:47.662Z,56.50
2019-03-16T03:18:36.032Z,56.60
2019-03-16T03:21:24.234Z,56.60
2019-03-16T03:24:12.330Z,56.60
2019-03-16T03:27:00.833Z,56.60
2019-03-16T03:29:49.247Z,56.60
2019-03-16T03:32:37.597Z,56.60
2019-03-16T03:35:29.192Z,56.70
2019-03-16T03:38:15.471Z,56.70
2019-03-16T03:41:03.710Z,56.70
2019-03-16T03:43:52.370Z,56.70
2019-03-16T03:46:41.054Z,56.70
2019-03-16T03:49:29.413Z,56.80
2019-03-16T03:52:17.917Z,56.80
2019-03-16T03:55:08.250Z,56.90
2019-03-16T03:57:56.815Z,56.80
2019-03-16T04:00:45.038Z,56.70
2019-03-16T04:03:32.989Z,56.70
2019-03-16T04:06:21.166Z,56.70
2019-03-16T04:09:09.499Z,56.60
2019-03-16T04:11:58.986Z,56.60
2019-03-16T04:14:47.565Z,56.80
2019-03-16T04:17:36.125Z,56.80
2019-03-16T04:20:24.339Z,56.90
2019-03-16T04:23:12.519Z,56.80
2019-03-16T04:26:00.995Z,56.80
2019-03-16T04:28:49.397Z,56.80
2019-03-16T04:31:37.739Z,56.60
2019-03-16T04:34:29.634Z,56.40
2019-03-16T04:37:15.598Z,56.30
2019-03-16T04:40:05.746Z,56.10
2019-03-16T04:42:54.007Z,56.00
2019-03-16T04:45:45.229Z,55.80
2019-03-16T04:48:33.571Z,55.70
2019-03-16T04:51:21.872Z,55.50
2019-03-16T04:54:10.299Z,55.40
2019-03-16T04:56:58.826Z,55.30
2019-03-16T04:59:47.263Z,55.10
2019-03-16T05:02:36.020Z,55.10
2019-03-16T05:05:26.826Z,55.00
2019-03-16T05:08:15.079Z,54.80
2019-03-16T05:11:03.449Z,54.70
2019-03-16T05:13:51.639Z,54.70
2019-03-16T05:16:40.127Z,54.50
2019-03-16T05:19:28.489Z,54.40
2019-03-16T05:22:16.856Z,54.40
2019-03-16T05:25:07.785Z,54.40
2019-03-16T05:27:55.978Z,54.30
2019-03-16T05:30:44.342Z,54.20
2019-03-16T05:33:32.718Z,54.20
2019-03-16T05:36:23.077Z,54.10
2019-03-16T05:39:11.597Z,54.10
2019-03-16T05:41:59.830Z,54.10
2019-03-16T05:44:47.950Z,54.10
2019-03-16T05:47:36.117Z,54.10
2019-03-16T05:50:24.566Z,54.10
2019-03-16T05:53:13.138Z,54.10
2019-03-16T05:56:01.246Z,54.10
2019-03-16T05:58:49.502Z,54.00
2019-03-16T06:01:37.812Z,54.00
2019-03-16T06:04:26.348Z,54.00
2019-03-16T06:07:14.722Z,54.10
2019-03-16T06:10:04.002Z,54.00
2019-03-16T06:12:51.913Z,54.10
2019-03-16T06:15:40.117Z,54.00
2019-03-16T06:18:28.331Z,54.00
2019-03-16T06:21:16.604Z,54.10
2019-03-16T06:24:04.754Z,54.10
2019-03-16T06:26:52.991Z,54.20
2019-03-16T06:29:41.371Z,54.20
2019-03-16T06:32:29.300Z,53.40
2019-03-16T06:35:24.534Z,53.00
2019-03-16T06:38:07.594Z,53.10
2019-03-16T06:40:55.945Z,53.20
2019-03-16T06:43:44.288Z,53.20
2019-03-16T06:46:32.427Z,53.30
2019-03-16T06:49:21.385Z,53.30
2019-03-16T06:52:09.463Z,53.30
2019-03-16T06:54:59.492Z,53.40
2019-03-16T06:57:47.811Z,53.40
2019-03-16T07:00:36.149Z,53.50
2019-03-16T07:03:25.914Z,53.60
2019-03-16T07:06:14.043Z,54.30
2019-03-16T07:09:02.703Z,53.90
2019-03-16T07:11:51.092Z,54.10
2019-03-16T07:14:39.509Z,54.30
2019-03-16T07:17:28.126Z,54.50
2019-03-16T07:20:16.671Z,54.70
2019-03-16T07:23:05.323Z,54.80
2019-03-16T07:25:53.250Z,54.80
2019-03-16T07:28:41.362Z,55.00
2019-03-16T07:31:29.639Z,55.10
2019-03-16T07:34:18.173Z,55.00
2019-03-16T07:37:06.689Z,55.10
2019-03-16T07:39:56.417Z,55.00
2019-03-16T07:42:55.757Z,54.90
2019-03-16T07:45:46.805Z,54.90
2019-03-16T07:48:37.008Z,55.00
2019-03-16T07:51:25.100Z,54.90
2019-03-16T07:54:13.373Z,54.90
2019-03-16T07:57:01.474Z,54.80
2019-03-16T07:59:49.729Z,54.70
2019-03-16T08:02:38.228Z,54.50
2019-03-16T08:05:27.803Z,54.40
2019-03-16T08:08:15.950Z,54.20
2019-03-16T08:11:04.107Z,54.30
2019-03-16T08:13:52.669Z,54.40
2019-03-16T08:16:41.159Z,54.40
2019-03-16T08:19:29.466Z,54.60
2019-03-16T08:22:17.572Z,54.80
2019-03-16T08:25:07.248Z,54.90
2019-03-16T08:27:55.930Z,54.80
2019-03-16T08:30:57.106Z,54.80
2019-03-16T08:33:45.754Z,54.50
2019-03-16T08:36:34.262Z,53.90
2019-03-16T08:39:22.780Z,53.80
2019-03-16T08:42:12.440Z,53.40
2019-03-16T08:45:01.077Z,53.10
2019-03-16T08:47:49.189Z,52.80
2019-03-16T08:50:37.440Z,52.80
2019-03-16T08:53:25.776Z,52.80
2019-03-16T08:56:14.018Z,53.00
2019-03-16T08:59:02.470Z,53.00
2019-03-16T09:01:50.838Z,53.10
2019-03-16T09:04:39.479Z,53.30
2019-03-16T09:07:27.984Z,53.50
2019-03-16T09:10:16.594Z,54.60
2019-03-16T09:13:05.062Z,54.70
2019-03-16T09:15:53.359Z,54.60
2019-03-16T09:18:41.734Z,54.80
2019-03-16T09:21:30.250Z,55.00
2019-03-16T09:24:18.380Z,55.00
2019-03-16T09:27:06.725Z,55.30
2019-03-16T09:29:55.070Z,55.50
2019-03-16T09:32:43.524Z,55.20
2019-03-16T09:35:31.493Z,55.10
2019-03-16T09:38:19.733Z,55.10
2019-03-16T09:41:08.083Z,55.00
2019-03-16T09:43:56.717Z,54.60
2019-03-16T09:46:47.385Z,54.90
2019-03-16T09:49:35.737Z,54.80
2019-03-16T09:52:23.985Z,54.60
2019-03-16T09:55:12.943Z,54.20
2019-03-16T09:58:01.322Z,54.00
2019-03-16T10:00:49.499Z,54.10
2019-03-16T10:03:37.713Z,54.20
2019-03-16T10:06:25.685Z,54.30
2019-03-16T10:09:14.237Z,54.30
2019-03-16T10:12:02.609Z,54.20
2019-03-16T10:14:50.774Z,54.10
2019-03-16T10:17:40.696Z,54.10
2019-03-16T10:20:28.741Z,54.00
2019-03-16T10:22:59.376Z,53.90
2019-03-16T10:25:30.050Z,53.80
2019-03-16T10:28:00.701Z,53.50
2019-03-16T10:30:31.429Z,53.60
2019-03-16T10:33:02.064Z,53.50
2019-03-16T10:35:32.728Z,53.50
2019-03-16T10:38:03.470Z,53.50
2019-03-16T10:40:34.154Z,53.40
2019-03-16T10:43:04.846Z,53.30
2019-03-16T10:45:35.483Z,53.40
2019-03-16T10:48:06.136Z,53.40
2019-03-16T10:50:36.777Z,53.20
2019-03-16T10:53:07.426Z,53.30
2019-03-16T10:55:38.126Z,53.40
2019-03-16T10:58:08.697Z,51.50
2019-03-16T11:00:39.400Z,52.50
2019-03-16T11:03:10.032Z,52.20
2019-03-16T11:05:40.736Z,52.30
2019-03-16T11:08:11.474Z,52.50
2019-03-16T11:10:42.105Z,52.60
2019-03-16T11:13:12.684Z,52.70
2019-03-16T11:15:43.396Z,52.80
2019-03-16T11:18:14.049Z,52.90
2019-03-16T11:20:44.751Z,53.00
2019-03-16T11:23:15.396Z,53.00
2019-03-16T11:25:46.016Z,53.00
2019-03-16T11:28:16.747Z,53.20
2019-03-16T11:31:05.302Z,53.30
2019-03-16T11:33:53.500Z,53.50
2019-03-16T11:36:41.659Z,53.70
2019-03-16T11:39:12.316Z,53.70
2019-03-16T11:41:42.946Z,53.80
2019-03-16T11:44:13.615Z,53.80
2019-03-16T11:46:44.317Z,53.80
2019-03-16T11:49:14.994Z,53.90
2019-03-16T11:51:45.636Z,53.90
2019-03-16T11:54:16.296Z,53.90
2019-03-16T11:56:47.014Z,53.90
2019-03-16T11:59:21.900Z,53.90
2019-03-16T12:01:49.943Z,53.90
2019-03-16T12:04:20.601Z,53.90
2019-03-16T12:06:51.324Z,53.90
2019-03-16T12:09:21.978Z,53.90
2019-03-16T12:11:52.597Z,53.90
2019-03-16T12:14:23.274Z,53.90
2019-03-16T12:16:53.919Z,53.90
2019-03-16T12:19:24.603Z,54.40
2019-03-16T12:21:55.264Z,53.80
2019-03-16T12:24:25.945Z,53.80
2019-03-16T12:26:56.579Z,53.80
2019-03-16T12:29:34.002Z,53.70
2019-03-16T12:32:07.096Z,53.80
2019-03-16T12:34:37.784Z,53.70
2019-03-16T12:37:08.420Z,53.70
2019-03-16T12:39:39.168Z,53.70
2019-03-16T12:42:10.133Z,53.70
2019-03-16T12:44:40.771Z,53.70
2019-03-16T12:47:11.427Z,53.70
2019-03-16T12:49:42.154Z,53.60
2019-03-16T12:52:12.825Z,53.60
2019-03-16T12:54:43.532Z,53.70
2019-03-16T12:57:14.187Z,53.60
2019-03-16T12:59:47.111Z,53.60
2019-03-16T13:02:17.146Z,53.60
2019-03-16T13:04:47.867Z,53.50
2019-03-16T13:07:18.589Z,53.50
2019-03-16T13:09:49.210Z,53.60
2019-03-16T13:12:19.800Z,53.50
2019-03-16T13:14:50.588Z,53.40
2019-03-16T13:17:21.268Z,53.40
2019-03-16T13:19:51.905Z,53.40
2019-03-16T13:22:22.601Z,53.40
2019-03-16T13:24:53.234Z,53.40
2019-03-16T13:27:23.915Z,53.40
2019-03-16T13:29:58.883Z,53.40
2019-03-16T13:32:26.770Z,53.50
2019-03-16T13:34:57.444Z,53.70
2019-03-16T13:37:28.171Z,53.80
2019-03-16T13:40:18.344Z,53.80
2019-03-16T13:43:06.802Z,53.90
2019-03-16T13:45:55.167Z,54.00
2019-03-16T13:48:43.341Z,54.20
2019-03-16T13:51:31.606Z,54.90
2019-03-16T13:54:19.934Z,55.20
2019-03-16T13:57:08.494Z,55.30
2019-03-16T13:59:56.780Z,55.50
2019-03-16T14:02:45.260Z,55.40
2019-03-16T14:05:15.986Z,55.30
2019-03-16T14:07:46.943Z,55.30
2019-03-16T14:10:22.990Z,55.10
2019-03-16T14:12:53.663Z,55.00
2019-03-16T14:15:24.293Z,54.90
2019-03-16T14:17:57.781Z,55.10
2019-03-16T14:20:27.295Z,55.00
2019-03-16T14:22:58.841Z,54.70
2019-03-16T14:25:29.461Z,55.30
2019-03-16T14:28:00.206Z,55.30
2019-03-16T14:30:40.880Z,55.40
2019-03-16T14:33:03.162Z,55.30
2019-03-16T14:35:33.787Z,55.40
2019-03-16T14:38:04.597Z,55.20
2019-03-16T14:40:35.385Z,55.20
2019-03-16T14:43:06.054Z,55.20
2019-03-16T14:45:36.886Z,55.20
2019-03-16T14:48:07.593Z,55.00
2019-03-16T14:50:38.258Z,53.70
2019-03-16T14:53:08.918Z,53.70
2019-03-16T14:55:57.593Z,54.20
2019-03-16T14:58:46.066Z,54.50
2019-03-16T15:01:16.825Z,54.70
2019-03-16T15:04:05.347Z,54.70
2019-03-16T15:06:35.992Z,54.80
2019-03-16T15:09:07.156Z,54.80
2019-03-16T15:11:37.893Z,54.80
2019-03-16T15:14:20.784Z,54.80
2019-03-16T15:16:40.813Z,54.70
2019-03-16T15:19:11.469Z,54.70
2019-03-16T15:21:42.115Z,54.70
2019-03-16T15:24:12.735Z,54.80
2019-03-16T15:26:43.377Z,54.80
2019-03-16T15:29:14.006Z,54.50
2019-03-16T15:31:44.582Z,54.30
2019-03-16T15:34:15.219Z,54.30
2019-03-16T15:36:45.955Z,54.20
2019-03-16T15:39:16.977Z,54.20
2019-03-16T15:41:47.626Z,54.20
2019-03-16T15:44:38.145Z,54.10
2019-03-16T15:47:25.873Z,54.00
2019-03-16T15:50:14.203Z,53.80
2019-03-16T15:53:02.566Z,53.90
2019-03-16T15:55:51.091Z,53.90
2019-03-16T15:58:39.823Z,53.90
2019-03-16T16:01:28.016Z,53.90
2019-03-16T16:04:16.187Z,53.10
2019-03-16T16:07:04.768Z,53.30
2019-03-16T16:09:53.171Z,53.40
2019-03-16T16:12:41.440Z,53.40
2019-03-16T16:15:29.599Z,53.50
2019-03-16T16:18:18.055Z,53.60
2019-03-16T16:21:06.488Z,53.70
2019-03-16T16:23:55.063Z,53.70
2019-03-16T16:26:43.056Z,53.60
2019-03-16T16:29:31.476Z,53.70
2019-03-16T16:32:19.576Z,53.60
2019-03-16T16:35:10.198Z,53.20
2019-03-16T16:37:59.323Z,53.10
2019-03-16T16:40:47.490Z,53.10
2019-03-16T16:43:35.940Z,53.10
2019-03-16T16:46:24.114Z,53.20
2019-03-16T16:49:12.774Z,53.30
2019-03-16T16:52:01.000Z,53.40
2019-03-16T16:54:49.293Z,53.40
2019-03-16T16:57:37.512Z,53.40
2019-03-16T17:00:27.848Z,53.50
2019-03-16T17:03:16.197Z,53.50
2019-03-16T17:06:04.590Z,53.60
2019-03-16T17:08:52.900Z,53.50
2019-03-16T17:11:40.905Z,53.60
2019-03-16T17:14:29.148Z,53.60
2019-03-16T17:17:17.271Z,53.60
2019-03-16T17:20:08.159Z,53.60
2019-03-16T17:22:56.446Z,53.70
2019-03-16T19:11:47.010Z,53.60
2019-03-16T19:14:35.197Z,53.60
2019-03-16T19:17:23.374Z,53.60
2019-03-16T19:20:15.540Z,53.50
2019-03-16T19:23:04.031Z,53.50
2019-03-16T19:25:52.349Z,53.50
2019-03-16T19:28:40.449Z,53.50
2019-03-16T19:31:28.736Z,53.60
2019-03-16T19:34:17.174Z,53.60
2019-03-16T19:37:05.789Z,53.60
2019-03-16T19:39:54.380Z,53.60
2019-03-16T19:42:42.618Z,53.50
2019-03-16T19:45:31.313Z,53.50
2019-03-16T19:48:19.685Z,53.50
2019-03-16T19:51:07.979Z,53.50
2019-03-16T19:53:56.374Z,53.50
2019-03-16T19:56:46.236Z,53.50
2019-03-16T19:59:34.410Z,53.40
2019-03-16T20:02:22.714Z,53.50
2019-03-16T20:05:11.839Z,53.50
2019-03-16T20:08:00.240Z,53.50
2019-03-16T20:10:48.572Z,53.50
2019-03-16T20:13:37.327Z,53.50
2019-03-16T20:16:25.593Z,53.50
2019-03-16T20:19:14.175Z,53.50
2019-03-16T20:22:02.589Z,53.50
2019-03-16T20:24:51.102Z,53.40
2019-03-16T20:27:39.351Z,53.50
2019-03-16T20:30:27.956Z,53.50
2019-03-16T20:33:16.536Z,53.50
2019-03-16T20:36:05.091Z,53.50
2019-03-16T20:38:53.784Z,54.00
2019-03-16T20:41:42.230Z,53.50
2019-03-16T20:44:30.353Z,53.50
2019-03-16T20:47:19.037Z,53.50
2019-03-16T20:50:14.692Z,53.40
2019-03-16T20:53:02.888Z,53.40
2019-03-16T20:55:51.090Z,53.40
2019-03-16T20:58:39.496Z,53.40
2019-03-16T21:01:27.794Z,53.40
2019-03-16T21:04:16.466Z,53.40
2019-03-16T21:07:05.213Z,53.40
2019-03-16T21:09:53.767Z,53.40
2019-03-16T21:12:42.292Z,53.40
2019-03-16T21:15:30.335Z,53.40
2019-03-16T21:18:18.803Z,53.50
2019-03-16T21:21:07.343Z,53.50
2019-03-16T21:23:55.678Z,53.50
2019-03-16T21:26:52.556Z,53.60
2019-03-16T21:29:33.609Z,53.60
2019-03-16T21:32:22.128Z,53.60
2019-03-16T21:35:10.624Z,53.60
2019-03-16T21:37:58.931Z,53.60
2019-03-16T21:40:47.041Z,53.80
2019-03-16T21:43:35.528Z,53.80
2019-03-16T21:46:23.757Z,53.80
2019-03-16T21:49:12.132Z,53.80
2019-03-16T21:52:02.730Z,53.90
2019-03-16T21:54:49.998Z,54.00
2019-03-16T21:57:38.573Z,54.10
2019-03-16T22:00:27.349Z,54.20
2019-03-16T22:03:15.994Z,54.30
2019-03-16T22:06:04.566Z,54.30
2019-03-16T22:08:52.878Z,54.40
2019-03-16T22:11:41.295Z,54.40
2019-03-16T22:14:29.499Z,54.50
2019-03-16T22:17:18.226Z,54.60
2019-03-16T22:20:09.524Z,54.70
2019-03-16T22:22:57.823Z,54.80
2019-03-16T22:25:46.147Z,54.90
2019-03-16T22:28:34.608Z,55.00
2019-03-16T22:31:22.947Z,55.10
2019-03-16T22:34:11.171Z,55.20
2019-03-16T22:36:59.622Z,55.20
2019-03-16T22:39:47.675Z,55.30
2019-03-16T22:42:35.920Z,55.40
2019-03-16T22:45:24.569Z,55.40
2019-03-16T22:48:12.784Z,55.40
2019-03-16T22:51:01.215Z,55.50
2019-03-16T22:53:49.622Z,55.50
2019-03-16T22:56:38.132Z,55.60
2019-03-16T22:59:26.468Z,55.60
2019-03-16T23:02:14.744Z,55.60
2019-03-16T23:05:02.980Z,55.80
2019-03-16T23:07:51.330Z,55.70
2019-03-16T23:10:42.602Z,55.70
2019-03-16T23:13:31.224Z,55.80
2019-03-16T23:16:19.781Z,55.80
2019-03-16T23:19:09.362Z,55.90
2019-03-16T23:21:57.832Z,55.90
2019-03-16T23:24:46.445Z,56.00
2019-03-16T23:27:34.428Z,56.00
2019-03-16T23:30:22.788Z,56.00
2019-03-16T23:33:11.366Z,56.10
2019-03-16T23:35:59.421Z,56.10
2019-03-16T23:38:47.793Z,56.20
2019-03-16T23:41:36.025Z,56.30
2019-03-16T23:44:24.206Z,56.30
2019-03-16T23:47:12.532Z,56.40
2019-03-16T23:50:00.685Z,56.40
2019-03-16T23:52:48.743Z,56.50
2019-03-16T23:55:37.374Z,56.40
2019-03-16T23:58:25.897Z,56.50
